sensor_id;sensor_type;location;lat;lon;timestamp;P1;durP1;ratioP1;P2;durP2;ratioP2
46507;SDS011;32223;53.654;10.014;2022-08-21T00:01:48;5.85;;;2.88;;
46507;SDS011;32223;53.654;10.014;2022-08-21T00:04:14;4.72;;;2.03;;
46507;SDS011;32223;53.654;10.014;2022-08-21T00:06:40;5.00;;;2.50;;
46507;SDS011;32223;53.654;10.014;2022-08-21T00:09:07;4.20;;;1.92;;
46507;SDS011;32223;53.654;10.014;2022-08-21T00:11:34;4.38;;;2.20;;
46507;SDS011;32223;53.654;10.014;2022-08-21T00:14:01;6.38;;;2.15;;
46507;SDS011;32223;53.654;10.014;2022-08-21T00:16:27;7.65;;;2.72;;
46507;SDS011;32223;53.654;10.014;2022-08-21T00:18:53;6.07;;;2.60;;
46507;SDS011;32223;53.654;10.014;2022-08-21T00:21:18;4.43;;;2.50;;
46507;SDS011;32223;53.654;10.014;2022-08-21T00:23:44;6.30;;;2.88;;
46507;SDS011;32223;53.654;10.014;2022-08-21T00:26:10;7.18;;;3.08;;
46507;SDS011;32223;53.654;10.014;2022-08-21T00:28:36;4.63;;;2.60;;
46507;SDS011;32223;53.654;10.014;2022-08-21T00:31:02;5.13;;;2.67;;
46507;SDS011;32223;53.654;10.014;2022-08-21T00:33:29;5.78;;;2.90;;
46507;SDS011;32223;53.654;10.014;2022-08-21T00:35:55;9.15;;;3.10;;
46507;SDS011;32223;53.654;10.014;2022-08-21T00:38:21;6.55;;;3.50;;
46507;SDS011;32223;53.654;10.014;2022-08-21T00:40:49;6.40;;;3.65;;
46507;SDS011;32223;53.654;10.014;2022-08-21T00:43:18;7.15;;;3.05;;
46507;SDS011;32223;53.654;10.014;2022-08-21T00:45:56;9.75;;;3.10;;
46507;SDS011;32223;53.654;10.014;2022-08-21T00:48:23;8.43;;;3.75;;
46507;SDS011;32223;53.654;10.014;2022-08-21T00:50:52;8.15;;;3.92;;
46507;SDS011;32223;53.654;10.014;2022-08-21T00:53:20;6.00;;;3.65;;
46507;SDS011;32223;53.654;10.014;2022-08-21T00:55:47;7.65;;;3.80;;
46507;SDS011;32223;53.654;10.014;2022-08-21T00:58:13;7.63;;;3.95;;
46507;SDS011;32223;53.654;10.014;2022-08-21T01:00:40;5.38;;;3.90;;
46507;SDS011;32223;53.654;10.014;2022-08-21T01:03:09;7.13;;;4.28;;
46507;SDS011;32223;53.654;10.014;2022-08-21T01:05:38;6.25;;;3.60;;
46507;SDS011;32223;53.654;10.014;2022-08-21T01:08:04;5.57;;;3.63;;
46507;SDS011;32223;53.654;10.014;2022-08-21T01:10:32;9.45;;;3.78;;
46507;SDS011;32223;53.654;10.014;2022-08-21T01:12:58;7.25;;;3.47;;
46507;SDS011;32223;53.654;10.014;2022-08-21T01:15:26;7.22;;;3.50;;
46507;SDS011;32223;53.654;10.014;2022-08-21T01:17:58;8.38;;;4.38;;
46507;SDS011;32223;53.654;10.014;2022-08-21T01:20:25;7.90;;;3.38;;
46507;SDS011;32223;53.654;10.014;2022-08-21T01:22:51;7.28;;;3.30;;
46507;SDS011;32223;53.654;10.014;2022-08-21T01:25:17;6.22;;;3.63;;
46507;SDS011;32223;53.654;10.014;2022-08-21T01:27:45;6.60;;;3.40;;
46507;SDS011;32223;53.654;10.014;2022-08-21T01:30:12;5.10;;;3.38;;
46507;SDS011;32223;53.654;10.014;2022-08-21T01:32:43;7.35;;;3.60;;
46507;SDS011;32223;53.654;10.014;2022-08-21T01:35:09;8.20;;;3.90;;
46507;SDS011;32223;53.654;10.014;2022-08-21T01:37:37;6.22;;;3.55;;
46507;SDS011;32223;53.654;10.014;2022-08-21T01:40:03;5.50;;;3.08;;
46507;SDS011;32223;53.654;10.014;2022-08-21T01:42:30;6.60;;;3.88;;
46507;SDS011;32223;53.654;10.014;2022-08-21T01:44:56;6.97;;;4.15;;
46507;SDS011;32223;53.654;10.014;2022-08-21T01:47:22;7.85;;;3.50;;
46507;SDS011;32223;53.654;10.014;2022-08-21T01:49:48;5.18;;;3.60;;
46507;SDS011;32223;53.654;10.014;2022-08-21T01:52:13;6.60;;;3.85;;
46507;SDS011;32223;53.654;10.014;2022-08-21T01:54:39;7.07;;;3.38;;
46507;SDS011;32223;53.654;10.014;2022-08-21T01:57:05;5.10;;;3.38;;
46507;SDS011;32223;53.654;10.014;2022-08-21T01:59:31;6.65;;;3.38;;
46507;SDS011;32223;53.654;10.014;2022-08-21T02:01:59;4.88;;;3.45;;
46507;SDS011;32223;53.654;10.014;2022-08-21T02:04:24;4.97;;;3.35;;
46507;SDS011;32223;53.654;10.014;2022-08-21T02:06:50;7.57;;;4.00;;
46507;SDS011;32223;53.654;10.014;2022-08-21T02:09:17;9.02;;;3.50;;
46507;SDS011;32223;53.654;10.014;2022-08-21T02:11:43;7.80;;;4.97;;
46507;SDS011;32223;53.654;10.014;2022-08-21T02:14:12;7.40;;;4.15;;
46507;SDS011;32223;53.654;10.014;2022-08-21T02:16:40;6.88;;;3.97;;
46507;SDS011;32223;53.654;10.014;2022-08-21T02:19:07;6.03;;;3.22;;
46507;SDS011;32223;53.654;10.014;2022-08-21T02:21:34;4.93;;;3.45;;
46507;SDS011;32223;53.654;10.014;2022-08-21T02:23:59;6.65;;;3.50;;
46507;SDS011;32223;53.654;10.014;2022-08-21T02:26:26;7.35;;;3.38;;
46507;SDS011;32223;53.654;10.014;2022-08-21T02:28:52;5.13;;;3.75;;
46507;SDS011;32223;53.654;10.014;2022-08-21T02:31:18;7.30;;;3.35;;
46507;SDS011;32223;53.654;10.014;2022-08-21T02:33:43;5.55;;;3.78;;
46507;SDS011;32223;53.654;10.014;2022-08-21T02:36:10;6.25;;;3.20;;
46507;SDS011;32223;53.654;10.014;2022-08-21T02:38:37;7.82;;;3.00;;
46507;SDS011;32223;53.654;10.014;2022-08-21T02:41:09;6.53;;;3.97;;
46507;SDS011;32223;53.654;10.014;2022-08-21T02:43:36;7.63;;;3.30;;
46507;SDS011;32223;53.654;10.014;2022-08-21T02:46:02;6.07;;;3.60;;
46507;SDS011;32223;53.654;10.014;2022-08-21T02:48:29;5.82;;;3.38;;
46507;SDS011;32223;53.654;10.014;2022-08-21T02:50:57;8.23;;;3.75;;
46507;SDS011;32223;53.654;10.014;2022-08-21T02:53:28;5.78;;;3.55;;
46507;SDS011;32223;53.654;10.014;2022-08-21T02:55:56;7.97;;;3.10;;
46507;SDS011;32223;53.654;10.014;2022-08-21T02:58:25;4.85;;;3.20;;
46507;SDS011;32223;53.654;10.014;2022-08-21T03:00:53;6.25;;;3.13;;
46507;SDS011;32223;53.654;10.014;2022-08-21T03:03:19;4.95;;;2.90;;
46507;SDS011;32223;53.654;10.014;2022-08-21T03:05:46;5.82;;;3.22;;
46507;SDS011;32223;53.654;10.014;2022-08-21T03:08:12;5.97;;;3.67;;
46507;SDS011;32223;53.654;10.014;2022-08-21T03:10:44;5.13;;;3.35;;
46507;SDS011;32223;53.654;10.014;2022-08-21T03:13:14;3.50;;;2.60;;
46507;SDS011;32223;53.654;10.014;2022-08-21T03:15:40;8.27;;;3.35;;
46507;SDS011;32223;53.654;10.014;2022-08-21T03:18:08;5.13;;;2.90;;
46507;SDS011;32223;53.654;10.014;2022-08-21T03:20:35;8.55;;;3.22;;
46507;SDS011;32223;53.654;10.014;2022-08-21T03:23:02;5.65;;;3.70;;
46507;SDS011;32223;53.654;10.014;2022-08-21T03:25:29;6.20;;;3.25;;
46507;SDS011;32223;53.654;10.014;2022-08-21T03:27:59;4.80;;;2.97;;
46507;SDS011;32223;53.654;10.014;2022-08-21T03:30:25;5.35;;;3.25;;
46507;SDS011;32223;53.654;10.014;2022-08-21T03:32:51;6.22;;;3.58;;
46507;SDS011;32223;53.654;10.014;2022-08-21T03:35:17;6.10;;;3.35;;
46507;SDS011;32223;53.654;10.014;2022-08-21T03:37:44;8.75;;;3.25;;
46507;SDS011;32223;53.654;10.014;2022-08-21T03:40:16;9.23;;;3.78;;
46507;SDS011;32223;53.654;10.014;2022-08-21T03:42:43;5.57;;;2.90;;
46507;SDS011;32223;53.654;10.014;2022-08-21T03:45:11;5.15;;;3.20;;
46507;SDS011;32223;53.654;10.014;2022-08-21T03:47:38;6.03;;;3.10;;
46507;SDS011;32223;53.654;10.014;2022-08-21T03:50:04;5.10;;;2.83;;
46507;SDS011;32223;53.654;10.014;2022-08-21T03:52:30;8.75;;;3.47;;
46507;SDS011;32223;53.654;10.014;2022-08-21T03:54:56;5.57;;;2.95;;
46507;SDS011;32223;53.654;10.014;2022-08-21T03:57:21;5.40;;;3.22;;
46507;SDS011;32223;53.654;10.014;2022-08-21T03:59:47;4.55;;;3.40;;
46507;SDS011;32223;53.654;10.014;2022-08-21T04:02:13;8.30;;;3.20;;
46507;SDS011;32223;53.654;10.014;2022-08-21T04:04:43;5.93;;;3.17;;
46507;SDS011;32223;53.654;10.014;2022-08-21T04:07:08;6.40;;;3.00;;
46507;SDS011;32223;53.654;10.014;2022-08-21T04:09:34;5.45;;;2.75;;
46507;SDS011;32223;53.654;10.014;2022-08-21T04:12:00;6.47;;;3.53;;
46507;SDS011;32223;53.654;10.014;2022-08-21T04:14:27;5.82;;;3.08;;
46507;SDS011;32223;53.654;10.014;2022-08-21T04:16:52;6.00;;;2.60;;
46507;SDS011;32223;53.654;10.014;2022-08-21T04:19:18;5.07;;;2.90;;
46507;SDS011;32223;53.654;10.014;2022-08-21T04:21:44;4.35;;;2.75;;
46507;SDS011;32223;53.654;10.014;2022-08-21T04:24:09;7.93;;;3.42;;
46507;SDS011;32223;53.654;10.014;2022-08-21T04:26:36;7.30;;;3.25;;
46507;SDS011;32223;53.654;10.014;2022-08-21T04:29:03;5.97;;;3.20;;
46507;SDS011;32223;53.654;10.014;2022-08-21T04:31:33;5.45;;;3.05;;
46507;SDS011;32223;53.654;10.014;2022-08-21T04:33:59;6.82;;;3.25;;
46507;SDS011;32223;53.654;10.014;2022-08-21T04:36:25;5.72;;;2.85;;
46507;SDS011;32223;53.654;10.014;2022-08-21T04:38:51;4.22;;;2.58;;
46507;SDS011;32223;53.654;10.014;2022-08-21T04:41:17;6.35;;;3.05;;
46507;SDS011;32223;53.654;10.014;2022-08-21T04:43:43;5.43;;;3.10;;
46507;SDS011;32223;53.654;10.014;2022-08-21T04:46:09;7.95;;;3.05;;
46507;SDS011;32223;53.654;10.014;2022-08-21T04:48:34;5.60;;;3.03;;
46507;SDS011;32223;53.654;10.014;2022-08-21T04:53:30;5.70;;;3.17;;
46507;SDS011;32223;53.654;10.014;2022-08-21T04:56:06;5.78;;;3.03;;
46507;SDS011;32223;53.654;10.014;2022-08-21T04:58:36;5.65;;;3.40;;
46507;SDS011;32223;53.654;10.014;2022-08-21T05:01:03;6.88;;;3.17;;
46507;SDS011;32223;53.654;10.014;2022-08-21T05:03:32;8.48;;;3.70;;
46507;SDS011;32223;53.654;10.014;2022-08-21T05:05:59;6.32;;;3.17;;
46507;SDS011;32223;53.654;10.014;2022-08-21T05:08:25;7.82;;;3.58;;
46507;SDS011;32223;53.654;10.014;2022-08-21T05:10:53;9.55;;;3.40;;
46507;SDS011;32223;53.654;10.014;2022-08-21T05:13:19;4.53;;;2.55;;
46507;SDS011;32223;53.654;10.014;2022-08-21T05:15:45;5.88;;;2.95;;
46507;SDS011;32223;53.654;10.014;2022-08-21T05:18:11;6.93;;;3.22;;
46507;SDS011;32223;53.654;10.014;2022-08-21T05:20:38;5.35;;;3.20;;
46507;SDS011;32223;53.654;10.014;2022-08-21T05:23:10;8.95;;;3.63;;
46507;SDS011;32223;53.654;10.014;2022-08-21T05:25:38;7.82;;;3.13;;
46507;SDS011;32223;53.654;10.014;2022-08-21T05:28:04;4.93;;;3.03;;
46507;SDS011;32223;53.654;10.014;2022-08-21T05:30:31;4.85;;;3.58;;
46507;SDS011;32223;53.654;10.014;2022-08-21T05:32:57;5.05;;;2.92;;
46507;SDS011;32223;53.654;10.014;2022-08-21T05:35:24;6.65;;;3.03;;
46507;SDS011;32223;53.654;10.014;2022-08-21T05:37:50;6.57;;;2.95;;
46507;SDS011;32223;53.654;10.014;2022-08-21T05:40:16;5.10;;;3.17;;
46507;SDS011;32223;53.654;10.014;2022-08-21T05:42:42;6.00;;;3.30;;
46507;SDS011;32223;53.654;10.014;2022-08-21T05:45:08;5.60;;;3.15;;
46507;SDS011;32223;53.654;10.014;2022-08-21T05:47:34;6.22;;;2.92;;
46507;SDS011;32223;53.654;10.014;2022-08-21T05:50:00;6.00;;;3.38;;
46507;SDS011;32223;53.654;10.014;2022-08-21T05:52:25;9.38;;;3.00;;
46507;SDS011;32223;53.654;10.014;2022-08-21T05:54:51;6.38;;;3.28;;
46507;SDS011;32223;53.654;10.014;2022-08-21T05:57:18;6.53;;;2.83;;
46507;SDS011;32223;53.654;10.014;2022-08-21T05:59:45;6.10;;;2.78;;
46507;SDS011;32223;53.654;10.014;2022-08-21T06:02:10;6.22;;;2.35;;
46507;SDS011;32223;53.654;10.014;2022-08-21T06:04:39;4.97;;;2.85;;
46507;SDS011;32223;53.654;10.014;2022-08-21T06:07:05;7.60;;;3.00;;
46507;SDS011;32223;53.654;10.014;2022-08-21T06:09:30;6.15;;;2.65;;
46507;SDS011;32223;53.654;10.014;2022-08-21T06:11:56;4.90;;;2.60;;
46507;SDS011;32223;53.654;10.014;2022-08-21T06:14:21;6.28;;;3.00;;
46507;SDS011;32223;53.654;10.014;2022-08-21T06:16:47;5.75;;;3.22;;
46507;SDS011;32223;53.654;10.014;2022-08-21T06:19:13;5.05;;;2.45;;
46507;SDS011;32223;53.654;10.014;2022-08-21T06:21:38;8.95;;;3.10;;
46507;SDS011;32223;53.654;10.014;2022-08-21T06:24:04;4.88;;;2.55;;
46507;SDS011;32223;53.654;10.014;2022-08-21T06:26:31;5.50;;;2.75;;
46507;SDS011;32223;53.654;10.014;2022-08-21T06:28:57;6.78;;;2.55;;
46507;SDS011;32223;53.654;10.014;2022-08-21T06:31:24;5.45;;;2.95;;
46507;SDS011;32223;53.654;10.014;2022-08-21T06:33:51;8.73;;;3.28;;
46507;SDS011;32223;53.654;10.014;2022-08-21T06:36:18;7.00;;;2.85;;
46507;SDS011;32223;53.654;10.014;2022-08-21T06:38:45;3.72;;;2.40;;
46507;SDS011;32223;53.654;10.014;2022-08-21T06:41:11;4.70;;;2.22;;
46507;SDS011;32223;53.654;10.014;2022-08-21T06:43:37;3.38;;;2.13;;
46507;SDS011;32223;53.654;10.014;2022-08-21T06:46:03;5.07;;;2.25;;
46507;SDS011;32223;53.654;10.014;2022-08-21T06:48:29;4.82;;;2.40;;
46507;SDS011;32223;53.654;10.014;2022-08-21T06:50:57;6.65;;;2.58;;
46507;SDS011;32223;53.654;10.014;2022-08-21T06:53:24;7.70;;;2.45;;
46507;SDS011;32223;53.654;10.014;2022-08-21T06:55:49;5.20;;;2.47;;
46507;SDS011;32223;53.654;10.014;2022-08-21T06:58:15;5.45;;;2.55;;
46507;SDS011;32223;53.654;10.014;2022-08-21T07:00:43;5.28;;;2.15;;
46507;SDS011;32223;53.654;10.014;2022-08-21T07:03:18;4.35;;;2.25;;
46507;SDS011;32223;53.654;10.014;2022-08-21T07:05:43;6.22;;;2.67;;
46507;SDS011;32223;53.654;10.014;2022-08-21T07:08:09;7.50;;;2.88;;
46507;SDS011;32223;53.654;10.014;2022-08-21T07:10:34;6.82;;;3.13;;
46507;SDS011;32223;53.654;10.014;2022-08-21T07:13:00;7.13;;;3.33;;
46507;SDS011;32223;53.654;10.014;2022-08-21T07:15:26;6.90;;;2.67;;
46507;SDS011;32223;53.654;10.014;2022-08-21T07:17:55;6.03;;;2.42;;
46507;SDS011;32223;53.654;10.014;2022-08-21T07:20:21;6.68;;;3.80;;
46507;SDS011;32223;53.654;10.014;2022-08-21T07:22:47;7.00;;;3.22;;
46507;SDS011;32223;53.654;10.014;2022-08-21T07:25:13;7.82;;;2.58;;
46507;SDS011;32223;53.654;10.014;2022-08-21T07:27:40;10.73;;;2.35;;
46507;SDS011;32223;53.654;10.014;2022-08-21T07:30:05;6.25;;;1.63;;
46507;SDS011;32223;53.654;10.014;2022-08-21T07:32:32;4.07;;;1.88;;
46507;SDS011;32223;53.654;10.014;2022-08-21T07:34:58;5.43;;;2.58;;
46507;SDS011;32223;53.654;10.014;2022-08-21T07:37:23;5.10;;;2.83;;
46507;SDS011;32223;53.654;10.014;2022-08-21T07:39:49;4.53;;;1.60;;
46507;SDS011;32223;53.654;10.014;2022-08-21T07:42:16;7.13;;;2.35;;
46507;SDS011;32223;53.654;10.014;2022-08-21T07:44:42;4.75;;;1.63;;
46507;SDS011;32223;53.654;10.014;2022-08-21T07:47:08;5.53;;;2.05;;
46507;SDS011;32223;53.654;10.014;2022-08-21T07:49:33;7.53;;;1.98;;
46507;SDS011;32223;53.654;10.014;2022-08-21T07:51:59;11.23;;;4.07;;
46507;SDS011;32223;53.654;10.014;2022-08-21T07:54:25;5.88;;;1.77;;
46507;SDS011;32223;53.654;10.014;2022-08-21T07:56:51;3.97;;;1.70;;
46507;SDS011;32223;53.654;10.014;2022-08-21T07:59:16;5.97;;;1.90;;
46507;SDS011;32223;53.654;10.014;2022-08-21T08:01:42;6.13;;;2.55;;
46507;SDS011;32223;53.654;10.014;2022-08-21T08:04:08;5.68;;;2.50;;
46507;SDS011;32223;53.654;10.014;2022-08-21T08:06:33;4.50;;;2.20;;
46507;SDS011;32223;53.654;10.014;2022-08-21T08:08:59;9.93;;;2.13;;
46507;SDS011;32223;53.654;10.014;2022-08-21T08:11:28;7.47;;;1.65;;
46507;SDS011;32223;53.654;10.014;2022-08-21T08:13:54;4.03;;;1.75;;
46507;SDS011;32223;53.654;10.014;2022-08-21T08:16:22;6.05;;;2.47;;
46507;SDS011;32223;53.654;10.014;2022-08-21T08:18:48;4.05;;;1.83;;
46507;SDS011;32223;53.654;10.014;2022-08-21T08:21:13;5.53;;;2.30;;
46507;SDS011;32223;53.654;10.014;2022-08-21T08:23:40;5.18;;;1.40;;
46507;SDS011;32223;53.654;10.014;2022-08-21T08:26:05;5.75;;;2.17;;
46507;SDS011;32223;53.654;10.014;2022-08-21T08:28:31;14.73;;;9.90;;
46507;SDS011;32223;53.654;10.014;2022-08-21T08:30:58;11.93;;;5.07;;
46507;SDS011;32223;53.654;10.014;2022-08-21T08:33:25;3.88;;;2.00;;
46507;SDS011;32223;53.654;10.014;2022-08-21T08:35:52;3.47;;;1.90;;
46507;SDS011;32223;53.654;10.014;2022-08-21T08:38:18;6.63;;;1.67;;
46507;SDS011;32223;53.654;10.014;2022-08-21T08:40:47;21.58;;;13.68;;
46507;SDS011;32223;53.654;10.014;2022-08-21T08:43:19;8.65;;;3.88;;
46507;SDS011;32223;53.654;10.014;2022-08-21T08:45:49;6.93;;;2.13;;
46507;SDS011;32223;53.654;10.014;2022-08-21T08:48:30;3.97;;;1.38;;
46507;SDS011;32223;53.654;10.014;2022-08-21T08:50:56;5.20;;;1.83;;
46507;SDS011;32223;53.654;10.014;2022-08-21T08:53:30;4.40;;;1.85;;
46507;SDS011;32223;53.654;10.014;2022-08-21T08:56:08;3.55;;;1.63;;
46507;SDS011;32223;53.654;10.014;2022-08-21T08:58:37;5.70;;;1.48;;
46507;SDS011;32223;53.654;10.014;2022-08-21T09:01:08;13.43;;;2.65;;
46507;SDS011;32223;53.654;10.014;2022-08-21T09:03:45;8.27;;;1.95;;
46507;SDS011;32223;53.654;10.014;2022-08-21T09:14:38;5.78;;;1.85;;
46507;SDS011;32223;53.654;10.014;2022-08-21T09:17:19;6.80;;;1.30;;
46507;SDS011;32223;53.654;10.014;2022-08-21T09:20:21;6.70;;;1.70;;
46507;SDS011;32223;53.654;10.014;2022-08-21T09:26:11;6.05;;;2.42;;
46507;SDS011;32223;53.654;10.014;2022-08-21T09:28:40;4.50;;;1.50;;
46507;SDS011;32223;53.654;10.014;2022-08-21T09:31:08;9.32;;;5.50;;
46507;SDS011;32223;53.654;10.014;2022-08-21T09:33:45;5.57;;;2.00;;
46507;SDS011;32223;53.654;10.014;2022-08-21T09:36:11;7.43;;;2.75;;
46507;SDS011;32223;53.654;10.014;2022-08-21T09:38:51;7.65;;;2.08;;
46507;SDS011;32223;53.654;10.014;2022-08-21T09:41:25;9.13;;;4.63;;
46507;SDS011;32223;53.654;10.014;2022-08-21T09:43:56;13.73;;;6.85;;
46507;SDS011;32223;53.654;10.014;2022-08-21T09:46:23;10.52;;;3.05;;
46507;SDS011;32223;53.654;10.014;2022-08-21T09:48:51;7.72;;;2.08;;
46507;SDS011;32223;53.654;10.014;2022-08-21T09:53:53;8.50;;;2.25;;
46507;SDS011;32223;53.654;10.014;2022-08-21T09:56:36;4.40;;;2.03;;
46507;SDS011;32223;53.654;10.014;2022-08-21T09:59:30;8.13;;;2.03;;
46507;SDS011;32223;53.654;10.014;2022-08-21T10:01:59;4.22;;;2.03;;
46507;SDS011;32223;53.654;10.014;2022-08-21T10:04:39;5.78;;;2.10;;
46507;SDS011;32223;53.654;10.014;2022-08-21T10:07:12;3.80;;;1.80;;
46507;SDS011;32223;53.654;10.014;2022-08-21T10:09:39;9.80;;;3.40;;
46507;SDS011;32223;53.654;10.014;2022-08-21T10:17:26;6.70;;;1.70;;
46507;SDS011;32223;53.654;10.014;2022-08-21T10:20:20;6.65;;;2.17;;
46507;SDS011;32223;53.654;10.014;2022-08-21T10:25:40;4.15;;;1.60;;
46507;SDS011;32223;53.654;10.014;2022-08-21T10:34:11;8.48;;;2.40;;
46507;SDS011;32223;53.654;10.014;2022-08-21T10:39:25;5.35;;;1.95;;
46507;SDS011;32223;53.654;10.014;2022-08-21T11:04:25;6.32;;;1.50;;
46507;SDS011;32223;53.654;10.014;2022-08-21T11:07:01;5.18;;;1.38;;
46507;SDS011;32223;53.654;10.014;2022-08-21T11:09:30;5.68;;;1.88;;
46507;SDS011;32223;53.654;10.014;2022-08-21T11:11:58;3.38;;;1.60;;
46507;SDS011;32223;53.654;10.014;2022-08-21T11:17:11;3.22;;;1.60;;
46507;SDS011;32223;53.654;10.014;2022-08-21T11:25:11;4.22;;;1.88;;
46507;SDS011;32223;53.654;10.014;2022-08-21T11:30:32;2.65;;;1.10;;
46507;SDS011;32223;53.654;10.014;2022-08-21T11:36:15;2.42;;;1.10;;
46507;SDS011;32223;53.654;10.014;2022-08-21T11:38:53;6.53;;;1.40;;
46507;SDS011;32223;53.654;10.014;2022-08-21T11:50:03;2.38;;;1.25;;
46507;SDS011;32223;53.654;10.014;2022-08-21T11:52:40;4.25;;;1.30;;
46507;SDS011;32223;53.654;10.014;2022-08-21T12:00:24;2.92;;;1.05;;
46507;SDS011;32223;53.654;10.014;2022-08-21T12:02:55;2.90;;;1.45;;
46507;SDS011;32223;53.654;10.014;2022-08-21T12:05:34;2.83;;;1.40;;
46507;SDS011;32223;53.654;10.014;2022-08-21T12:11:09;2.78;;;1.00;;
46507;SDS011;32223;53.654;10.014;2022-08-21T12:13:30;2.42;;;1.00;;
46507;SDS011;32223;53.654;10.014;2022-08-21T12:16:12;2.38;;;1.02;;
46507;SDS011;32223;53.654;10.014;2022-08-21T12:18:41;5.38;;;1.92;;
46507;SDS011;32223;53.654;10.014;2022-08-21T12:23:57;4.70;;;1.42;;
46507;SDS011;32223;53.654;10.014;2022-08-21T12:26:31;4.75;;;1.20;;
46507;SDS011;32223;53.654;10.014;2022-08-21T12:34:15;3.58;;;1.45;;
46507;SDS011;32223;53.654;10.014;2022-08-21T12:36:45;4.07;;;1.15;;
46507;SDS011;32223;53.654;10.014;2022-08-21T12:39:17;3.30;;;1.45;;
46507;SDS011;32223;53.654;10.014;2022-08-21T12:42:00;3.20;;;1.13;;
46507;SDS011;32223;53.654;10.014;2022-08-21T12:44:51;3.22;;;1.60;;
46507;SDS011;32223;53.654;10.014;2022-08-21T12:47:30;2.60;;;1.15;;
46507;SDS011;32223;53.654;10.014;2022-08-21T12:50:13;2.97;;;1.10;;
46507;SDS011;32223;53.654;10.014;2022-08-21T12:52:45;3.38;;;1.40;;
46507;SDS011;32223;53.654;10.014;2022-08-21T12:55:25;1.90;;;1.20;;
46507;SDS011;32223;53.654;10.014;2022-08-21T12:57:56;2.53;;;1.08;;
46507;SDS011;32223;53.654;10.014;2022-08-21T13:00:24;3.55;;;1.10;;
46507;SDS011;32223;53.654;10.014;2022-08-21T13:02:51;1.90;;;1.00;;
46507;SDS011;32223;53.654;10.014;2022-08-21T13:05:23;3.30;;;1.27;;
46507;SDS011;32223;53.654;10.014;2022-08-21T13:07:50;5.88;;;1.33;;
46507;SDS011;32223;53.654;10.014;2022-08-21T13:10:20;2.33;;;1.00;;
46507;SDS011;32223;53.654;10.014;2022-08-21T13:13:02;3.45;;;1.20;;
46507;SDS011;32223;53.654;10.014;2022-08-21T13:15:37;4.82;;;0.95;;
46507;SDS011;32223;53.654;10.014;2022-08-21T13:18:05;3.40;;;1.20;;
46507;SDS011;32223;53.654;10.014;2022-08-21T13:20:33;2.38;;;0.85;;
46507;SDS011;32223;53.654;10.014;2022-08-21T13:23:02;2.10;;;0.90;;
46507;SDS011;32223;53.654;10.014;2022-08-21T13:25:34;2.58;;;1.13;;
46507;SDS011;32223;53.654;10.014;2022-08-21T13:28:12;2.88;;;0.80;;
46507;SDS011;32223;53.654;10.014;2022-08-21T13:31:00;3.15;;;0.90;;
46507;SDS011;32223;53.654;10.014;2022-08-21T13:33:26;1.92;;;0.73;;
46507;SDS011;32223;53.654;10.014;2022-08-21T13:38:22;2.50;;;1.15;;
46507;SDS011;32223;53.654;10.014;2022-08-21T13:43:46;2.38;;;0.90;;
46507;SDS011;32223;53.654;10.014;2022-08-21T13:46:14;4.20;;;0.90;;
46507;SDS011;32223;53.654;10.014;2022-08-21T13:48:40;1.88;;;0.90;;
46507;SDS011;32223;53.654;10.014;2022-08-21T13:51:08;3.70;;;1.00;;
46507;SDS011;32223;53.654;10.014;2022-08-21T13:56:24;2.25;;;0.98;;
46507;SDS011;32223;53.654;10.014;2022-08-21T13:58:59;3.50;;;0.93;;
46507;SDS011;32223;53.654;10.014;2022-08-21T14:01:27;2.13;;;0.90;;
46507;SDS011;32223;53.654;10.014;2022-08-21T14:03:59;3.20;;;0.70;;
46507;SDS011;32223;53.654;10.014;2022-08-21T14:06:47;2.35;;;1.05;;
46507;SDS011;32223;53.654;10.014;2022-08-21T14:09:35;4.80;;;0.70;;
46507;SDS011;32223;53.654;10.014;2022-08-21T14:12:19;3.55;;;1.40;;
46507;SDS011;32223;53.654;10.014;2022-08-21T14:14:53;2.17;;;1.20;;
46507;SDS011;32223;53.654;10.014;2022-08-21T14:17:28;3.45;;;1.00;;
46507;SDS011;32223;53.654;10.014;2022-08-21T14:19:58;1.95;;;0.88;;
46507;SDS011;32223;53.654;10.014;2022-08-21T14:22:29;3.65;;;1.08;;
46507;SDS011;32223;53.654;10.014;2022-08-21T14:27:54;3.47;;;0.82;;
46507;SDS011;32223;53.654;10.014;2022-08-21T14:30:45;2.53;;;0.98;;
46507;SDS011;32223;53.654;10.014;2022-08-21T14:33:12;3.05;;;1.00;;
46507;SDS011;32223;53.654;10.014;2022-08-21T14:35:56;2.33;;;0.95;;
46507;SDS011;32223;53.654;10.014;2022-08-21T14:38:23;1.52;;;0.90;;
46507;SDS011;32223;53.654;10.014;2022-08-21T14:41:00;2.28;;;0.80;;
46507;SDS011;32223;53.654;10.014;2022-08-21T14:43:31;3.05;;;1.13;;
46507;SDS011;32223;53.654;10.014;2022-08-21T14:45:57;4.55;;;0.68;;
46507;SDS011;32223;53.654;10.014;2022-08-21T14:48:23;3.53;;;0.88;;
46507;SDS011;32223;53.654;10.014;2022-08-21T14:50:49;3.03;;;0.90;;
46507;SDS011;32223;53.654;10.014;2022-08-21T14:53:14;2.08;;;0.95;;
46507;SDS011;32223;53.654;10.014;2022-08-21T14:55:41;1.48;;;0.70;;
46507;SDS011;32223;53.654;10.014;2022-08-21T14:58:25;3.88;;;0.90;;
46507;SDS011;32223;53.654;10.014;2022-08-21T15:00:51;6.57;;;1.50;;
46507;SDS011;32223;53.654;10.014;2022-08-21T15:03:19;1.42;;;0.80;;
46507;SDS011;32223;53.654;10.014;2022-08-21T15:05:46;2.33;;;0.80;;
46507;SDS011;32223;53.654;10.014;2022-08-21T15:08:12;2.55;;;1.00;;
46507;SDS011;32223;53.654;10.014;2022-08-21T15:10:38;1.77;;;0.93;;
46507;SDS011;32223;53.654;10.014;2022-08-21T15:13:04;2.47;;;0.70;;
46507;SDS011;32223;53.654;10.014;2022-08-21T15:15:32;4.13;;;1.20;;
46507;SDS011;32223;53.654;10.014;2022-08-21T15:18:03;2.13;;;0.85;;
46507;SDS011;32223;53.654;10.014;2022-08-21T15:20:29;2.72;;;0.95;;
46507;SDS011;32223;53.654;10.014;2022-08-21T15:22:54;2.25;;;0.70;;
46507;SDS011;32223;53.654;10.014;2022-08-21T15:25:20;2.50;;;1.02;;
46507;SDS011;32223;53.654;10.014;2022-08-21T15:27:47;2.90;;;1.38;;
46507;SDS011;32223;53.654;10.014;2022-08-21T15:30:13;2.88;;;1.20;;
46507;SDS011;32223;53.654;10.014;2022-08-21T15:32:39;2.67;;;0.80;;
46507;SDS011;32223;53.654;10.014;2022-08-21T15:35:06;3.22;;;1.33;;
46507;SDS011;32223;53.654;10.014;2022-08-21T15:37:32;2.13;;;0.80;;
46507;SDS011;32223;53.654;10.014;2022-08-21T15:39:58;2.55;;;0.65;;
46507;SDS011;32223;53.654;10.014;2022-08-21T15:42:24;3.17;;;1.02;;
46507;SDS011;32223;53.654;10.014;2022-08-21T15:44:54;3.00;;;1.15;;
46507;SDS011;32223;53.654;10.014;2022-08-21T15:47:21;2.65;;;0.80;;
46507;SDS011;32223;53.654;10.014;2022-08-21T15:49:50;2.47;;;0.75;;
46507;SDS011;32223;53.654;10.014;2022-08-21T15:52:16;2.35;;;0.90;;
46507;SDS011;32223;53.654;10.014;2022-08-21T15:54:43;2.67;;;1.15;;
46507;SDS011;32223;53.654;10.014;2022-08-21T15:57:11;4.55;;;1.00;;
46507;SDS011;32223;53.654;10.014;2022-08-21T15:59:40;2.85;;;1.13;;
46507;SDS011;32223;53.654;10.014;2022-08-21T16:02:08;2.05;;;1.00;;
46507;SDS011;32223;53.654;10.014;2022-08-21T16:04:42;3.22;;;0.90;;
46507;SDS011;32223;53.654;10.014;2022-08-21T16:07:08;3.08;;;1.33;;
46507;SDS011;32223;53.654;10.014;2022-08-21T16:09:34;2.97;;;1.08;;
46507;SDS011;32223;53.654;10.014;2022-08-21T16:12:00;2.92;;;1.35;;
46507;SDS011;32223;53.654;10.014;2022-08-21T16:14:26;2.40;;;0.80;;
46507;SDS011;32223;53.654;10.014;2022-08-21T16:16:54;1.50;;;0.77;;
46507;SDS011;32223;53.654;10.014;2022-08-21T16:19:20;4.25;;;0.80;;
46507;SDS011;32223;53.654;10.014;2022-08-21T16:21:46;3.92;;;1.15;;
46507;SDS011;32223;53.654;10.014;2022-08-21T16:24:11;1.98;;;0.68;;
46507;SDS011;32223;53.654;10.014;2022-08-21T16:26:37;2.20;;;0.70;;
46507;SDS011;32223;53.654;10.014;2022-08-21T16:29:03;1.90;;;0.75;;